sensor_id;sensor_type;location;lat;lon;timestamp;P1;durP1;ratioP1;P2;durP2;ratioP2
16669;SDS011;8448;52.034;5.158;2023-04-03T00:02:18;6.17;;;1.50;;
16669;SDS011;8448;52.034;5.158;2023-04-03T00:04:46;2.33;;;1.23;;
16669;SDS011;8448;52.034;5.158;2023-04-03T00:07:13;2.33;;;1.30;;
16669;SDS011;8448;52.034;5.158;2023-04-03T00:09:41;2.90;;;1.50;;
16669;SDS011;8448;52.034;5.158;2023-04-03T00:12:08;3.10;;;1.53;;
16669;SDS011;8448;52.034;5.158;2023-04-03T00:14:37;2.40;;;1.40;;
16669;SDS011;8448;52.034;5.158;2023-04-03T00:17:04;1.57;;;1.43;;
16669;SDS011;8448;52.034;5.158;2023-04-03T00:19:31;4.00;;;1.43;;
16669;SDS011;8448;52.034;5.158;2023-04-03T00:22:00;2.63;;;1.40;;
16669;SDS011;8448;52.034;5.158;2023-04-03T00:24:27;3.60;;;1.47;;
16669;SDS011;8448;52.034;5.158;2023-04-03T00:26:54;2.83;;;1.63;;
16669;SDS011;8448;52.034;5.158;2023-04-03T00:29:22;3.27;;;1.60;;
16669;SDS011;8448;52.034;5.158;2023-04-03T00:31:50;3.17;;;1.37;;
16669;SDS011;8448;52.034;5.158;2023-04-03T00:34:18;3.10;;;1.63;;
16669;SDS011;8448;52.034;5.158;2023-04-03T00:36:45;4.80;;;1.67;;
16669;SDS011;8448;52.034;5.158;2023-04-03T00:39:13;2.33;;;1.30;;
16669;SDS011;8448;52.034;5.158;2023-04-03T00:41:40;2.77;;;1.37;;
16669;SDS011;8448;52.034;5.158;2023-04-03T00:44:20;2.57;;;1.77;;
16669;SDS011;8448;52.034;5.158;2023-04-03T00:46:50;3.47;;;1.37;;
16669;SDS011;8448;52.034;5.158;2023-04-03T00:49:18;3.63;;;1.47;;
16669;SDS011;8448;52.034;5.158;2023-04-03T00:51:45;2.70;;;1.57;;
16669;SDS011;8448;52.034;5.158;2023-04-03T00:54:13;2.77;;;1.53;;
16669;SDS011;8448;52.034;5.158;2023-04-03T00:56:40;4.43;;;1.63;;
16669;SDS011;8448;52.034;5.158;2023-04-03T00:59:09;6.23;;;1.60;;
16669;SDS011;8448;52.034;5.158;2023-04-03T01:01:38;3.10;;;1.67;;
16669;SDS011;8448;52.034;5.158;2023-04-03T01:06:54;5.07;;;1.83;;
16669;SDS011;8448;52.034;5.158;2023-04-03T01:09:23;2.87;;;1.60;;
16669;SDS011;8448;52.034;5.158;2023-04-03T01:11:50;3.87;;;1.80;;
16669;SDS011;8448;52.034;5.158;2023-04-03T01:14:18;3.40;;;1.60;;
16669;SDS011;8448;52.034;5.158;2023-04-03T01:16:51;3.87;;;1.83;;
16669;SDS011;8448;52.034;5.158;2023-04-03T01:19:19;2.23;;;1.40;;
16669;SDS011;8448;52.034;5.158;2023-04-03T01:22:03;3.27;;;1.53;;
16669;SDS011;8448;52.034;5.158;2023-04-03T01:24:38;3.27;;;1.70;;
16669;SDS011;8448;52.034;5.158;2023-04-03T01:27:07;3.70;;;1.57;;
16669;SDS011;8448;52.034;5.158;2023-04-03T01:29:37;3.37;;;1.70;;
16669;SDS011;8448;52.034;5.158;2023-04-03T01:32:06;2.75;;;1.60;;
16669;SDS011;8448;52.034;5.158;2023-04-03T01:34:33;2.73;;;1.60;;
16669;SDS011;8448;52.034;5.158;2023-04-03T01:37:01;2.47;;;1.80;;
16669;SDS011;8448;52.034;5.158;2023-04-03T01:39:28;3.20;;;1.87;;
16669;SDS011;8448;52.034;5.158;2023-04-03T01:41:56;3.47;;;1.73;;
16669;SDS011;8448;52.034;5.158;2023-04-03T01:44:29;6.70;;;1.70;;
16669;SDS011;8448;52.034;5.158;2023-04-03T01:46:56;5.00;;;1.97;;
16669;SDS011;8448;52.034;5.158;2023-04-03T01:49:27;2.60;;;1.47;;
16669;SDS011;8448;52.034;5.158;2023-04-03T01:51:55;4.00;;;1.80;;
16669;SDS011;8448;52.034;5.158;2023-04-03T01:54:22;3.03;;;1.87;;
16669;SDS011;8448;52.034;5.158;2023-04-03T01:56:50;3.13;;;1.87;;
16669;SDS011;8448;52.034;5.158;2023-04-03T01:59:19;5.67;;;2.17;;
16669;SDS011;8448;52.034;5.158;2023-04-03T02:01:46;3.80;;;1.70;;
16669;SDS011;8448;52.034;5.158;2023-04-03T02:04:13;5.10;;;1.80;;
16669;SDS011;8448;52.034;5.158;2023-04-03T02:06:42;3.70;;;1.60;;
16669;SDS011;8448;52.034;5.158;2023-04-03T02:09:09;3.83;;;1.90;;
16669;SDS011;8448;52.034;5.158;2023-04-03T02:11:37;3.90;;;1.70;;
16669;SDS011;8448;52.034;5.158;2023-04-03T02:14:04;2.40;;;1.60;;
16669;SDS011;8448;52.034;5.158;2023-04-03T02:16:32;4.07;;;1.83;;
16669;SDS011;8448;52.034;5.158;2023-04-03T02:19:00;4.23;;;1.77;;
16669;SDS011;8448;52.034;5.158;2023-04-03T02:21:29;3.53;;;2.10;;
16669;SDS011;8448;52.034;5.158;2023-04-03T02:23:57;3.27;;;1.80;;
16669;SDS011;8448;52.034;5.158;2023-04-03T02:26:25;2.93;;;1.70;;
16669;SDS011;8448;52.034;5.158;2023-04-03T02:28:52;3.90;;;1.90;;
16669;SDS011;8448;52.034;5.158;2023-04-03T02:31:20;3.37;;;1.80;;
16669;SDS011;8448;52.034;5.158;2023-04-03T02:33:47;4.27;;;2.17;;
16669;SDS011;8448;52.034;5.158;2023-04-03T02:36:15;5.67;;;1.83;;
16669;SDS011;8448;52.034;5.158;2023-04-03T02:38:48;5.50;;;1.80;;
16669;SDS011;8448;52.034;5.158;2023-04-03T02:41:17;6.27;;;1.93;;
16669;SDS011;8448;52.034;5.158;2023-04-03T02:43:46;3.00;;;1.70;;
16669;SDS011;8448;52.034;5.158;2023-04-03T02:46:15;3.30;;;1.90;;
16669;SDS011;8448;52.034;5.158;2023-04-03T02:48:42;3.85;;;1.77;;
16669;SDS011;8448;52.034;5.158;2023-04-03T02:51:09;3.87;;;1.90;;
16669;SDS011;8448;52.034;5.158;2023-04-03T02:53:37;3.73;;;1.83;;
16669;SDS011;8448;52.034;5.158;2023-04-03T02:56:10;3.53;;;1.87;;
16669;SDS011;8448;52.034;5.158;2023-04-03T02:58:39;3.57;;;1.60;;
16669;SDS011;8448;52.034;5.158;2023-04-03T03:01:07;5.73;;;2.00;;
16669;SDS011;8448;52.034;5.158;2023-04-03T03:03:35;5.57;;;1.97;;
16669;SDS011;8448;52.034;5.158;2023-04-03T03:06:02;3.40;;;1.90;;
16669;SDS011;8448;52.034;5.158;2023-04-03T03:08:32;5.20;;;2.00;;
16669;SDS011;8448;52.034;5.158;2023-04-03T03:11:00;3.47;;;2.00;;
16669;SDS011;8448;52.034;5.158;2023-04-03T03:13:27;4.00;;;2.03;;
16669;SDS011;8448;52.034;5.158;2023-04-03T03:15:56;3.73;;;2.07;;
16669;SDS011;8448;52.034;5.158;2023-04-03T03:18:24;4.03;;;1.87;;
16669;SDS011;8448;52.034;5.158;2023-04-03T03:20:52;4.07;;;2.17;;
16669;SDS011;8448;52.034;5.158;2023-04-03T03:23:19;4.83;;;2.10;;
16669;SDS011;8448;52.034;5.158;2023-04-03T03:25:48;5.30;;;2.10;;
16669;SDS011;8448;52.034;5.158;2023-04-03T03:28:15;4.23;;;1.83;;
16669;SDS011;8448;52.034;5.158;2023-04-03T03:30:43;3.37;;;1.77;;
16669;SDS011;8448;52.034;5.158;2023-04-03T03:33:11;5.60;;;2.20;;
16669;SDS011;8448;52.034;5.158;2023-04-03T03:35:39;3.37;;;2.10;;
16669;SDS011;8448;52.034;5.158;2023-04-03T03:38:07;3.22;;;2.10;;
16669;SDS011;8448;52.034;5.158;2023-04-03T03:40:34;3.63;;;2.10;;
16669;SDS011;8448;52.034;5.158;2023-04-03T03:43:02;4.83;;;2.30;;
16669;SDS011;8448;52.034;5.158;2023-04-03T03:45:30;6.63;;;2.10;;
16669;SDS011;8448;52.034;5.158;2023-04-03T03:47:57;4.88;;;2.70;;
16669;SDS011;8448;52.034;5.158;2023-04-03T03:50:26;6.17;;;2.37;;
16669;SDS011;8448;52.034;5.158;2023-04-03T03:52:53;4.87;;;2.07;;
16669;SDS011;8448;52.034;5.158;2023-04-03T03:55:21;5.33;;;2.30;;
16669;SDS011;8448;52.034;5.158;2023-04-03T03:57:51;6.10;;;2.40;;
16669;SDS011;8448;52.034;5.158;2023-04-03T04:00:20;5.87;;;2.43;;
16669;SDS011;8448;52.034;5.158;2023-04-03T04:02:52;4.73;;;2.50;;
16669;SDS011;8448;52.034;5.158;2023-04-03T04:05:22;4.90;;;2.30;;
16669;SDS011;8448;52.034;5.158;2023-04-03T04:07:52;5.63;;;2.60;;
16669;SDS011;8448;52.034;5.158;2023-04-03T04:10:19;7.13;;;2.43;;
16669;SDS011;8448;52.034;5.158;2023-04-03T04:12:47;4.90;;;2.50;;
16669;SDS011;8448;52.034;5.158;2023-04-03T04:15:16;5.90;;;2.57;;
16669;SDS011;8448;52.034;5.158;2023-04-03T04:17:45;5.73;;;2.60;;
16669;SDS011;8448;52.034;5.158;2023-04-03T04:20:12;5.67;;;2.63;;
16669;SDS011;8448;52.034;5.158;2023-04-03T04:22:40;6.23;;;2.37;;
16669;SDS011;8448;52.034;5.158;2023-04-03T04:25:09;4.27;;;2.40;;
16669;SDS011;8448;52.034;5.158;2023-04-03T04:27:38;4.80;;;2.53;;
16669;SDS011;8448;52.034;5.158;2023-04-03T04:30:07;5.77;;;2.60;;
16669;SDS011;8448;52.034;5.158;2023-04-03T04:32:35;4.43;;;2.20;;
16669;SDS011;8448;52.034;5.158;2023-04-03T04:35:03;4.00;;;2.40;;
16669;SDS011;8448;52.034;5.158;2023-04-03T04:37:33;6.32;;;2.50;;
16669;SDS011;8448;52.034;5.158;2023-04-03T04:40:01;3.03;;;2.13;;
16669;SDS011;8448;52.034;5.158;2023-04-03T04:42:30;6.47;;;2.90;;
16669;SDS011;8448;52.034;5.158;2023-04-03T04:44:57;4.97;;;2.60;;
16669;SDS011;8448;52.034;5.158;2023-04-03T04:47:25;7.43;;;2.50;;
16669;SDS011;8448;52.034;5.158;2023-04-03T04:49:53;4.50;;;2.43;;
16669;SDS011;8448;52.034;5.158;2023-04-03T04:52:21;5.33;;;2.43;;
16669;SDS011;8448;52.034;5.158;2023-04-03T04:54:48;5.45;;;2.60;;
16669;SDS011;8448;52.034;5.158;2023-04-03T04:57:16;5.13;;;2.60;;
16669;SDS011;8448;52.034;5.158;2023-04-03T04:59:45;5.87;;;2.83;;
16669;SDS011;8448;52.034;5.158;2023-04-03T05:02:12;6.00;;;3.20;;
16669;SDS011;8448;52.034;5.158;2023-04-03T05:04:41;4.77;;;2.93;;
16669;SDS011;8448;52.034;5.158;2023-04-03T05:07:15;6.20;;;2.80;;
16669;SDS011;8448;52.034;5.158;2023-04-03T05:09:43;5.20;;;2.83;;
16669;SDS011;8448;52.034;5.158;2023-04-03T05:12:12;7.17;;;3.00;;
16669;SDS011;8448;52.034;5.158;2023-04-03T05:14:48;5.50;;;2.60;;
16669;SDS011;8448;52.034;5.158;2023-04-03T05:17:15;7.40;;;2.67;;
16669;SDS011;8448;52.034;5.158;2023-04-03T05:19:48;4.90;;;2.63;;
16669;SDS011;8448;52.034;5.158;2023-04-03T05:22:18;5.13;;;2.70;;
16669;SDS011;8448;52.034;5.158;2023-04-03T05:24:46;7.03;;;3.10;;
16669;SDS011;8448;52.034;5.158;2023-04-03T05:27:15;5.60;;;3.10;;
16669;SDS011;8448;52.034;5.158;2023-04-03T05:29:48;5.53;;;2.67;;
16669;SDS011;8448;52.034;5.158;2023-04-03T05:32:19;5.10;;;2.70;;
16669;SDS011;8448;52.034;5.158;2023-04-03T05:34:51;3.77;;;2.40;;
16669;SDS011;8448;52.034;5.158;2023-04-03T05:37:19;6.63;;;2.83;;
16669;SDS011;8448;52.034;5.158;2023-04-03T05:39:46;6.33;;;3.00;;
16669;SDS011;8448;52.034;5.158;2023-04-03T05:42:13;7.70;;;2.90;;
16669;SDS011;8448;52.034;5.158;2023-04-03T05:44:42;5.33;;;2.80;;
16669;SDS011;8448;52.034;5.158;2023-04-03T05:47:13;6.87;;;2.70;;
16669;SDS011;8448;52.034;5.158;2023-04-03T05:49:40;7.10;;;2.80;;
16669;SDS011;8448;52.034;5.158;2023-04-03T05:52:11;7.97;;;3.10;;
16669;SDS011;8448;52.034;5.158;2023-04-03T05:54:47;6.93;;;3.00;;
16669;SDS011;8448;52.034;5.158;2023-04-03T05:57:19;6.63;;;2.90;;
16669;SDS011;8448;52.034;5.158;2023-04-03T05:59:47;7.97;;;3.37;;
16669;SDS011;8448;52.034;5.158;2023-04-03T06:02:16;7.37;;;3.03;;
16669;SDS011;8448;52.034;5.158;2023-04-03T06:04:46;7.23;;;3.13;;
16669;SDS011;8448;52.034;5.158;2023-04-03T06:07:14;6.33;;;2.83;;
16669;SDS011;8448;52.034;5.158;2023-04-03T06:09:48;4.80;;;2.80;;
16669;SDS011;8448;52.034;5.158;2023-04-03T06:12:16;9.73;;;3.30;;
16669;SDS011;8448;52.034;5.158;2023-04-03T06:14:43;5.80;;;3.00;;
16669;SDS011;8448;52.034;5.158;2023-04-03T06:17:13;7.03;;;3.20;;
16669;SDS011;8448;52.034;5.158;2023-04-03T06:19:42;6.63;;;3.00;;
16669;SDS011;8448;52.034;5.158;2023-04-03T06:22:09;7.63;;;2.90;;
16669;SDS011;8448;52.034;5.158;2023-04-03T06:24:37;8.03;;;2.97;;
16669;SDS011;8448;52.034;5.158;2023-04-03T06:27:05;8.50;;;2.80;;
16669;SDS011;8448;52.034;5.158;2023-04-03T06:29:32;6.90;;;3.10;;
16669;SDS011;8448;52.034;5.158;2023-04-03T06:32:00;5.97;;;2.60;;
16669;SDS011;8448;52.034;5.158;2023-04-03T06:34:27;7.60;;;3.20;;
16669;SDS011;8448;52.034;5.158;2023-04-03T06:36:56;6.73;;;2.70;;
16669;SDS011;8448;52.034;5.158;2023-04-03T06:39:23;6.90;;;3.03;;
16669;SDS011;8448;52.034;5.158;2023-04-03T06:41:51;5.47;;;2.87;;
16669;SDS011;8448;52.034;5.158;2023-04-03T06:44:26;9.23;;;3.17;;
16669;SDS011;8448;52.034;5.158;2023-04-03T06:46:53;5.63;;;2.90;;
16669;SDS011;8448;52.034;5.158;2023-04-03T06:49:20;7.07;;;3.07;;
16669;SDS011;8448;52.034;5.158;2023-04-03T06:51:48;5.17;;;3.10;;
16669;SDS011;8448;52.034;5.158;2023-04-03T06:54:16;7.13;;;3.00;;
16669;SDS011;8448;52.034;5.158;2023-04-03T06:56:44;7.00;;;2.80;;
16669;SDS011;8448;52.034;5.158;2023-04-03T06:59:12;9.50;;;3.10;;
16669;SDS011;8448;52.034;5.158;2023-04-03T07:01:40;7.80;;;3.00;;
16669;SDS011;8448;52.034;5.158;2023-04-03T07:04:07;8.23;;;3.20;;
16669;SDS011;8448;52.034;5.158;2023-04-03T07:06:35;8.13;;;2.60;;
16669;SDS011;8448;52.034;5.158;2023-04-03T07:09:02;6.00;;;2.50;;
16669;SDS011;8448;52.034;5.158;2023-04-03T07:11:31;6.57;;;2.67;;
16669;SDS011;8448;52.034;5.158;2023-04-03T07:13:58;6.23;;;2.37;;
16669;SDS011;8448;52.034;5.158;2023-04-03T07:16:26;5.63;;;2.53;;
16669;SDS011;8448;52.034;5.158;2023-04-03T07:18:55;6.67;;;2.70;;
16669;SDS011;8448;52.034;5.158;2023-04-03T07:21:23;6.23;;;2.73;;
16669;SDS011;8448;52.034;5.158;2023-04-03T07:23:51;6.67;;;2.40;;
16669;SDS011;8448;52.034;5.158;2023-04-03T07:26:18;7.97;;;2.30;;
16669;SDS011;8448;52.034;5.158;2023-04-03T07:28:47;6.83;;;2.13;;
16669;SDS011;8448;52.034;5.158;2023-04-03T07:31:15;4.70;;;2.30;;
16669;SDS011;8448;52.034;5.158;2023-04-03T07:33:43;5.27;;;2.30;;
16669;SDS011;8448;52.034;5.158;2023-04-03T07:36:13;4.93;;;2.23;;
16669;SDS011;8448;52.034;5.158;2023-04-03T07:38:42;6.57;;;2.03;;
16669;SDS011;8448;52.034;5.158;2023-04-03T07:41:10;4.60;;;2.13;;
16669;SDS011;8448;52.034;5.158;2023-04-03T07:43:40;7.10;;;2.53;;
16669;SDS011;8448;52.034;5.158;2023-04-03T07:46:10;4.87;;;2.20;;
16669;SDS011;8448;52.034;5.158;2023-04-03T07:48:37;4.83;;;2.00;;
16669;SDS011;8448;52.034;5.158;2023-04-03T07:51:05;6.07;;;2.03;;
16669;SDS011;8448;52.034;5.158;2023-04-03T07:53:33;10.77;;;2.30;;
16669;SDS011;8448;52.034;5.158;2023-04-03T07:56:00;6.57;;;2.00;;
16669;SDS011;8448;52.034;5.158;2023-04-03T07:58:29;5.33;;;1.90;;
16669;SDS011;8448;52.034;5.158;2023-04-03T08:00:57;5.27;;;2.07;;
16669;SDS011;8448;52.034;5.158;2023-04-03T08:03:26;7.03;;;2.60;;
16669;SDS011;8448;52.034;5.158;2023-04-03T08:05:54;4.00;;;1.90;;
16669;SDS011;8448;52.034;5.158;2023-04-03T08:08:27;6.90;;;2.30;;
16669;SDS011;8448;52.034;5.158;2023-04-03T08:10:55;3.90;;;1.97;;
16669;SDS011;8448;52.034;5.158;2023-04-03T08:13:24;5.17;;;2.00;;
16669;SDS011;8448;52.034;5.158;2023-04-03T08:15:51;3.50;;;1.50;;
16669;SDS011;8448;52.034;5.158;2023-04-03T08:18:19;4.07;;;1.70;;
16669;SDS011;8448;52.034;5.158;2023-04-03T08:20:51;4.37;;;1.97;;
16669;SDS011;8448;52.034;5.158;2023-04-03T08:23:19;5.10;;;1.97;;
16669;SDS011;8448;52.034;5.158;2023-04-03T08:25:46;4.97;;;1.97;;
16669;SDS011;8448;52.034;5.158;2023-04-03T08:28:14;4.27;;;2.00;;
16669;SDS011;8448;52.034;5.158;2023-04-03T08:30:41;5.03;;;1.70;;
16669;SDS011;8448;52.034;5.158;2023-04-03T08:33:09;6.97;;;1.90;;
16669;SDS011;8448;52.034;5.158;2023-04-03T08:35:40;4.47;;;1.90;;
16669;SDS011;8448;52.034;5.158;2023-04-03T08:38:09;4.30;;;1.90;;
16669;SDS011;8448;52.034;5.158;2023-04-03T08:40:37;5.97;;;2.00;;
16669;SDS011;8448;52.034;5.158;2023-04-03T08:43:10;2.90;;;1.70;;
16669;SDS011;8448;52.034;5.158;2023-04-03T08:45:51;3.47;;;1.77;;
16669;SDS011;8448;52.034;5.158;2023-04-03T08:48:21;4.43;;;1.83;;
16669;SDS011;8448;52.034;5.158;2023-04-03T08:50:51;6.03;;;1.70;;
16669;SDS011;8448;52.034;5.158;2023-04-03T08:53:24;3.93;;;1.90;;
16669;SDS011;8448;52.034;5.158;2023-04-03T08:55:53;4.40;;;1.83;;
16669;SDS011;8448;52.034;5.158;2023-04-03T08:58:23;5.50;;;1.67;;
16669;SDS011;8448;52.034;5.158;2023-04-03T09:00:53;3.83;;;1.43;;
16669;SDS011;8448;52.034;5.158;2023-04-03T09:03:23;2.63;;;1.40;;
16669;SDS011;8448;52.034;5.158;2023-04-03T09:05:53;3.90;;;1.60;;
16669;SDS011;8448;52.034;5.158;2023-04-03T09:08:24;4.00;;;1.43;;
16669;SDS011;8448;52.034;5.158;2023-04-03T09:10:58;3.23;;;1.03;;
16669;SDS011;8448;52.034;5.158;2023-04-03T09:13:33;2.00;;;0.90;;
16669;SDS011;8448;52.034;5.158;2023-04-03T09:16:04;2.70;;;1.07;;
16669;SDS011;8448;52.034;5.158;2023-04-03T09:18:41;3.03;;;1.03;;
16669;SDS011;8448;52.034;5.158;2023-04-03T09:21:13;2.50;;;0.90;;
16669;SDS011;8448;52.034;5.158;2023-04-03T09:23:47;3.60;;;0.70;;
16669;SDS011;8448;52.034;5.158;2023-04-03T09:26:18;1.30;;;0.80;;
16669;SDS011;8448;52.034;5.158;2023-04-03T09:28:49;1.10;;;0.70;;
16669;SDS011;8448;52.034;5.158;2023-04-03T09:31:19;3.63;;;0.90;;
16669;SDS011;8448;52.034;5.158;2023-04-03T09:33:48;1.53;;;0.80;;
16669;SDS011;8448;52.034;5.158;2023-04-03T09:39:07;1.50;;;0.83;;
16669;SDS011;8448;52.034;5.158;2023-04-03T09:41:38;1.87;;;0.90;;
16669;SDS011;8448;52.034;5.158;2023-04-03T09:44:17;1.93;;;0.70;;
16669;SDS011;8448;52.034;5.158;2023-04-03T09:46:47;1.63;;;0.73;;
16669;SDS011;8448;52.034;5.158;2023-04-03T09:49:16;0.90;;;0.70;;
16669;SDS011;8448;52.034;5.158;2023-04-03T09:51:45;1.90;;;0.93;;
16669;SDS011;8448;52.034;5.158;2023-04-03T09:57:09;1.30;;;0.70;;
16669;SDS011;8448;52.034;5.158;2023-04-03T09:59:46;2.27;;;0.80;;
16669;SDS011;8448;52.034;5.158;2023-04-03T10:02:22;6.00;;;0.60;;
16669;SDS011;8448;52.034;5.158;2023-04-03T10:04:56;2.17;;;0.60;;
16669;SDS011;8448;52.034;5.158;2023-04-03T10:07:29;0.50;;;0.47;;
16669;SDS011;8448;52.034;5.158;2023-04-03T10:10:00;1.70;;;0.90;;
16669;SDS011;8448;52.034;5.158;2023-04-03T10:12:29;2.17;;;0.70;;
16669;SDS011;8448;52.034;5.158;2023-04-03T10:14:57;0.77;;;0.40;;
16669;SDS011;8448;52.034;5.158;2023-04-03T10:17:29;0.87;;;0.50;;
16669;SDS011;8448;52.034;5.158;2023-04-03T10:20:06;0.97;;;0.57;;
16669;SDS011;8448;52.034;5.158;2023-04-03T10:22:40;0.97;;;0.50;;
16669;SDS011;8448;52.034;5.158;2023-04-03T10:25:12;2.17;;;0.60;;
16669;SDS011;8448;52.034;5.158;2023-04-03T10:27:49;0.63;;;0.30;;
16669;SDS011;8448;52.034;5.158;2023-04-03T10:30:22;2.27;;;0.60;;
16669;SDS011;8448;52.034;5.158;2023-04-03T10:32:58;0.40;;;0.40;;
16669;SDS011;8448;52.034;5.158;2023-04-03T10:35:37;1.57;;;0.60;;
16669;SDS011;8448;52.034;5.158;2023-04-03T10:38:11;1.57;;;0.57;;
16669;SDS011;8448;52.034;5.158;2023-04-03T10:40:45;2.23;;;0.40;;
16669;SDS011;8448;52.034;5.158;2023-04-03T10:43:18;1.63;;;0.70;;
16669;SDS011;8448;52.034;5.158;2023-04-03T10:45:53;2.30;;;0.57;;
16669;SDS011;8448;52.034;5.158;2023-04-03T10:48:33;2.00;;;0.60;;
16669;SDS011;8448;52.034;5.158;2023-04-03T10:51:10;1.37;;;0.50;;
16669;SDS011;8448;52.034;5.158;2023-04-03T10:53:49;0.60;;;0.60;;
16669;SDS011;8448;52.034;5.158;2023-04-03T10:56:25;0.53;;;0.50;;
16669;SDS011;8448;52.034;5.158;2023-04-03T10:58:58;0.57;;;0.50;;
16669;SDS011;8448;52.034;5.158;2023-04-03T11:01:30;0.83;;;0.40;;
16669;SDS011;8448;52.034;5.158;2023-04-03T11:04:00;0.83;;;0.40;;
16669;SDS011;8448;52.034;5.158;2023-04-03T11:06:31;1.53;;;0.50;;
16669;SDS011;8448;52.034;5.158;2023-04-03T11:09:04;0.70;;;0.50;;
16669;SDS011;8448;52.034;5.158;2023-04-03T11:11:36;2.30;;;0.50;;
16669;SDS011;8448;52.034;5.158;2023-04-03T11:14:05;0.83;;;0.57;;
16669;SDS011;8448;52.034;5.158;2023-04-03T11:16:42;1.33;;;0.70;;
16669;SDS011;8448;52.034;5.158;2023-04-03T11:19:14;0.50;;;0.40;;
16669;SDS011;8448;52.034;5.158;2023-04-03T11:21:47;0.80;;;0.43;;
16669;SDS011;8448;52.034;5.158;2023-04-03T11:24:22;1.23;;;0.60;;
16669;SDS011;8448;52.034;5.158;2023-04-03T11:26:53;1.10;;;0.47;;
16669;SDS011;8448;52.034;5.158;2023-04-03T11:29:26;1.30;;;0.77;;
16669;SDS011;8448;52.034;5.158;2023-04-03T11:36:03;2.97;;;0.70;;
16669;SDS011;8448;52.034;5.158;2023-04-03T11:38:34;0.70;;;0.60;;
16669;SDS011;8448;52.034;5.158;2023-04-03T11:41:21;3.20;;;0.90;;
16669;SDS011;8448;52.034;5.158;2023-04-03T11:44:03;1.80;;;0.80;;
16669;SDS011;8448;52.034;5.158;2023-04-03T11:46:54;0.90;;;0.80;;
16669;SDS011;8448;52.034;5.158;2023-04-03T11:58:31;2.78;;;1.02;;
16669;SDS011;8448;52.034;5.158;2023-04-03T12:01:12;1.48;;;0.85;;
16669;SDS011;8448;52.034;5.158;2023-04-03T12:04:13;1.80;;;0.88;;
16669;SDS011;8448;52.034;5.158;2023-04-03T12:12:58;2.78;;;1.00;;
16669;SDS011;8448;52.034;5.158;2023-04-03T12:24:41;2.03;;;0.90;;
16669;SDS011;8448;52.034;5.158;2023-04-03T12:27:21;1.73;;;0.90;;
16669;SDS011;8448;52.034;5.158;2023-04-03T12:30:25;3.05;;;0.93;;
16669;SDS011;8448;52.034;5.158;2023-04-03T12:33:52;2.75;;;0.90;;
16669;SDS011;8448;52.034;5.158;2023-04-03T12:51:07;2.90;;;0.80;;
16669;SDS011;8448;52.034;5.158;2023-04-03T12:54:22;3.78;;;0.90;;
16669;SDS011;8448;52.034;5.158;2023-04-03T12:57:21;2.00;;;1.10;;
16669;SDS011;8448;52.034;5.158;2023-04-03T13:00:41;1.42;;;0.80;;
16669;SDS011;8448;52.034;5.158;2023-04-03T13:07:41;3.33;;;1.00;;
16669;SDS011;8448;52.034;5.158;2023-04-03T13:10:18;3.25;;;1.10;;
16669;SDS011;8448;52.034;5.158;2023-04-03T13:13:46;3.53;;;1.10;;
16669;SDS011;8448;52.034;5.158;2023-04-03T13:17:33;1.73;;;1.00;;
16669;SDS011;8448;52.034;5.158;2023-04-03T13:23:20;4.70;;;1.02;;
16669;SDS011;8448;52.034;5.158;2023-04-03T13:25:48;2.97;;;1.00;;
16669;SDS011;8448;52.034;5.158;2023-04-03T13:28:18;3.50;;;1.05;;
16669;SDS011;8448;52.034;5.158;2023-04-03T13:30:55;2.08;;;0.98;;
16669;SDS011;8448;52.034;5.158;2023-04-03T13:33:27;1.52;;;0.90;;
16669;SDS011;8448;52.034;5.158;2023-04-03T13:36:00;1.58;;;0.98;;
16669;SDS011;8448;52.034;5.158;2023-04-03T13:38:30;1.98;;;0.90;;
16669;SDS011;8448;52.034;5.158;2023-04-03T13:40:59;1.38;;;0.80;;
16669;SDS011;8448;52.034;5.158;2023-04-03T13:43:28;5.80;;;1.00;;
16669;SDS011;8448;52.034;5.158;2023-04-03T13:45:58;1.38;;;0.85;;
16669;SDS011;8448;52.034;5.158;2023-04-03T13:48:34;2.10;;;0.85;;
16669;SDS011;8448;52.034;5.158;2023-04-03T13:51:05;2.35;;;1.02;;
16669;SDS011;8448;52.034;5.158;2023-04-03T13:53:42;2.20;;;1.00;;
16669;SDS011;8448;52.034;5.158;2023-04-03T13:56:16;1.88;;;0.80;;
16669;SDS011;8448;52.034;5.158;2023-04-03T13:58:56;1.77;;;0.95;;
16669;SDS011;8448;52.034;5.158;2023-04-03T14:01:33;1.45;;;0.80;;
16669;SDS011;8448;52.034;5.158;2023-04-03T14:04:11;1.58;;;0.80;;
16669;SDS011;8448;52.034;5.158;2023-04-03T14:06:43;3.25;;;1.10;;
16669;SDS011;8448;52.034;5.158;2023-04-03T14:09:11;3.53;;;1.27;;
16669;SDS011;8448;52.034;5.158;2023-04-03T14:11:39;2.15;;;1.08;;
16669;SDS011;8448;52.034;5.158;2023-04-03T14:14:11;2.17;;;1.15;;
16669;SDS011;8448;52.034;5.158;2023-04-03T14:16:41;2.97;;;1.20;;
16669;SDS011;8448;52.034;5.158;2023-04-03T14:19:14;1.85;;;1.00;;
16669;SDS011;8448;52.034;5.158;2023-04-03T14:21:46;2.08;;;1.20;;
16669;SDS011;8448;52.034;5.158;2023-04-03T14:24:14;2.10;;;1.15;;
16669;SDS011;8448;52.034;5.158;2023-04-03T14:26:41;2.60;;;1.30;;
16669;SDS011;8448;52.034;5.158;2023-04-03T14:29:10;2.17;;;1.05;;
16669;SDS011;8448;52.034;5.158;2023-04-03T14:31:38;1.30;;;1.05;;
16669;SDS011;8448;52.034;5.158;2023-04-03T14:34:06;1.25;;;0.90;;
16669;SDS011;8448;52.034;5.158;2023-04-03T14:36:35;2.40;;;1.10;;
16669;SDS011;8448;52.034;5.158;2023-04-03T14:39:06;2.58;;;1.20;;
16669;SDS011;8448;52.034;5.158;2023-04-03T14:41:36;3.97;;;1.40;;
16669;SDS011;8448;52.034;5.158;2023-04-03T14:44:03;4.10;;;1.42;;
16669;SDS011;8448;52.034;5.158;2023-04-03T14:46:32;2.03;;;1.15;;
16669;SDS011;8448;52.034;5.158;2023-04-03T14:49:01;2.35;;;1.00;;
16669;SDS011;8448;52.034;5.158;2023-04-03T14:51:33;1.90;;;1.00;;
16669;SDS011;8448;52.034;5.158;2023-04-03T14:54:03;2.03;;;1.13;;
16669;SDS011;8448;52.034;5.158;2023-04-03T14:56:36;2.05;;;1.10;;
16669;SDS011;8448;52.034;5.158;2023-04-03T14:59:04;2.15;;;1.15;;
16669;SDS011;8448;52.034;5.158;2023-04-03T15:01:34;3.22;;;1.30;;
16669;SDS011;8448;52.034;5.158;2023-04-03T15:04:04;2.70;;;1.20;;
16669;SDS011;8448;52.034;5.158;2023-04-03T15:06:39;1.35;;;1.10;;
16669;SDS011;8448;52.034;5.158;2023-04-03T15:09:20;2.25;;;1.20;;
16669;SDS011;8448;52.034;5.158;2023-04-03T15:11:49;4.47;;;1.13;;
16669;SDS011;8448;52.034;5.158;2023-04-03T15:14:16;3.85;;;1.40;;
16669;SDS011;8448;52.034;5.158;2023-04-03T15:16:44;2.10;;;1.13;;
16669;SDS011;8448;52.034;5.158;2023-04-03T15:19:12;2.50;;;1.10;;
16669;SDS011;8448;52.034;5.158;2023-04-03T15:21:42;2.38;;;1.38;;
16669;SDS011;8448;52.034;5.158;2023-04-03T15:24:10;2.33;;;1.30;;
16669;SDS011;8448;52.034;5.158;2023-04-03T15:26:38;2.40;;;1.33;;
16669;SDS011;8448;52.034;5.158;2023-04-03T15:29:08;5.68;;;1.65;;
16669;SDS011;8448;52.034;5.158;2023-04-03T15:31:35;2.75;;;1.40;;
16669;SDS011;8448;52.034;5.158;2023-04-03T15:34:04;3.03;;;1.40;;
16669;SDS011;8448;52.034;5.158;2023-04-03T15:36:32;2.55;;;1.30;;
16669;SDS011;8448;52.034;5.158;2023-04-03T15:38:59;3.80;;;1.42;;
16669;SDS011;8448;52.034;5.158;2023-04-03T15:41:26;4.35;;;1.55;;
16669;SDS011;8448;52.034;5.158;2023-04-03T15:43:55;2.88;;;1.50;;
16669;SDS011;8448;52.034;5.158;2023-04-03T15:46:23;2.75;;;1.30;;
16669;SDS011;8448;52.034;5.158;2023-04-03T15:48:50;2.55;;;1.38;;
16669;SDS011;8448;52.034;5.158;2023-04-03T15:51:18;3.50;;;1.52;;
16669;SDS011;8448;52.034;5.158;2023-04-03T15:53:45;2.30;;;1.40;;
16669;SDS011;8448;52.034;5.158;2023-04-03T15:56:12;2.60;;;1.60;;
16669;SDS011;8448;52.034;5.158;2023-04-03T15:58:40;4.88;;;1.45;;
16669;SDS011;8448;52.034;5.158;2023-04-03T16:01:09;3.13;;;1.67;;
16669;SDS011;8448;52.034;5.158;2023-04-03T16:03:39;4.30;;;1.52;;
16669;SDS011;8448;52.034;5.158;2023-04-03T16:06:10;2.38;;;1.63;;
16669;SDS011;8448;52.034;5.158;2023-04-03T16:08:37;3.15;;;1.48;;
16669;SDS011;8448;52.034;5.158;2023-04-03T16:11:05;2.85;;;1.48;;
16669;SDS011;8448;52.034;5.158;2023-04-03T16:13:35;3.20;;;1.70;;
16669;SDS011;8448;52.034;5.158;2023-04-03T16:16:06;4.15;;;1.63;;
16669;SDS011;8448;52.034;5.158;2023-04-03T16:18:35;3.20;;;1.80;;
16669;SDS011;8448;52.034;5.158;2023-04-03T16:21:02;3.83;;;1.40;;
16669;SDS011;8448;52.034;5.158;2023-04-03T16:23:30;2.97;;;1.55;;